• Join FlightAware (Why Join?)
  • Login
  • US Flag 
12:35PM EDT


 

Airport Tracker/Info


-or-


 

Live Flight TrackerFlight Track Log ✈ DAL1117 ✈ 12-Apr-2013 ✈ KDTW - KLAS

Flight Track Log - Related Links

Times and Time Zones

All times are in EDT time to prevent confusion due to time zone crossing. See the DAL1117 flight status page for this flight to view local times or setup timezone preferences in your user account.

Time Position Orientation Groundspeed Altitude Reporting Facility
EDT Latitude Longitude Course Direction KTS MPH feet Rate Location/Type
09:44PM 42.2017 -83.3583 225° Southwest 144 166 1,700  Level Cleveland Center
09:45PM 42.1542 -83.4233 225° Southwest 233 268 3,700 1,980 Climbing Cleveland Center
09:46PM 42.1044 -83.4883 224° Southwest 249 287 6,600 2,700 Climbing Cleveland Center
09:47PM 42.1089 -83.5614 275° West 251 289 9,000 2,280 Climbing Cleveland Center
09:48PM 42.1506 -83.6417 305° West 261 300 11,100 1,560 Climbing Cleveland Center
09:49PM 42.1981 -83.7392 303° West 279 321 12,200 1,680 Climbing Cleveland Center
09:50PM 42.2533 -83.8486 304° West 314 361 14,500 1,800 Climbing Cleveland Center
09:51PM 42.3006 -83.9436 304° West 339 390 15,900 1,560 Climbing Cleveland Center
09:52PM 42.3597 -84.0622 304° West 360 414 17,700 2,040 Climbing Cleveland Center
09:53PM 42.4186 -84.1808 304° West 376 433 20,000 1,920 Climbing Cleveland Center
09:54PM 42.4308 -84.3192 277° West 368 423 21,600 1,500 Climbing Cleveland Center
09:56PM 42.4383 -84.6428 272° West 383 441 25,100 1,500 Climbing Chicago Center
09:57PM 42.4422 -84.8153 272° West 383 441 26,700 1,140 Climbing Chicago Center
09:58PM 42.4461 -84.9628 272° West 389 448 27,500 780 Climbing Chicago Center
09:59PM 42.4497 -85.1147 272° West 397 457 28,400 900 Climbing Chicago Center
10:00PM 42.4528 -85.2672 272° West 405 466 29,400 900 Climbing Chicago Center
10:01PM 42.4556 -85.4217 271° West 409 471 30,300 1,080 Climbing Chicago Center
10:03PM 42.4581 -85.5764 271° West 410 472 31,700 1,140 Climbing Chicago Center
10:04PM 42.4608 -85.7236 272° West 396 456 32,700 840 Climbing Chicago Center
10:05PM 42.4631 -85.8739 271° West 397 457 33,500 600 Climbing Chicago Center
10:06PM 42.4639 -86.0244 270° West 399 459 34,000 240 Climbing Chicago Center
10:07PM 42.4561 -86.1758 266° West 401 461 34,000  Level Chicago Center
10:08PM 42.4344 -86.3522 261° West 398 458 34,000  Level Chicago Center
10:09PM 42.4153 -86.5019 260° West 403 464 34,000  Level Chicago Center
10:10PM 42.3967 -86.6508 260° West 401 461 34,000  Level Chicago Center
10:11PM 42.3786 -86.8003 261° West 400 460 34,000  Level Chicago Center
10:12PM 42.3592 -86.9469 260° West 401 461 34,000  Level Chicago Center
10:13PM 42.3381 -87.0928 259° West 398 458 34,000  Level Chicago Center
10:14PM 42.3183 -87.2431 260° West 406 467 34,000  Level Chicago Center
10:15PM 42.2939 -87.4206 260° West 406 467 34,000  Level Chicago Center
10:16PM 42.2753 -87.5686 260° West 403 464 34,000  Level Chicago Center
10:17PM 42.2536 -87.7181 259° West 408 470 34,000  Level Chicago Center
10:18PM 42.2331 -87.8647 259° West 404 465 34,000  Level Chicago Center
10:19PM 42.2103 -88.0122 258° West 404 465 34,000  Level Chicago Center
10:20PM 42.1850 -88.1586 257° West 405 466 34,000  Level Chicago Center
10:21PM 42.1583 -88.3042 256° West 404 465 34,000  Level Chicago Center
10:22PM 42.1281 -88.4767 257° West 400 460 34,000  Level Chicago Center
10:23PM 42.1022 -88.6200 256° West 398 458 34,000  Level Chicago Center
10:24PM 42.0761 -88.7631 256° West 397 457 34,000  Level Chicago Center
10:25PM 42.0503 -88.9069 256° West 399 459 34,000  Level Chicago Center
10:26PM 42.0239 -89.0489 256° West 395 455 34,000  Level Chicago Center
10:27PM 41.9981 -89.1906 256° West 394 453 34,000  Level Chicago Center
10:28PM 41.9708 -89.3300 255° West 390 449 34,000  Level Chicago Center
10:29PM 41.9403 -89.5000 256° West 392 451 34,000  Level Chicago Center
10:30PM 41.9131 -89.6403 255° West 391 450 34,000  Level Chicago Center
10:31PM 41.8867 -89.7803 256° West 391 450 34,100  Climbing Chicago Center
10:32PM 41.8681 -89.9192 260° West 385 443 34,000 -60 Descending Chicago Center
10:33PM 41.8575 -90.0622 264° West 388 447 34,000  Level Chicago Center
10:34PM 41.8461 -90.2019 264° West 381 438 34,000  Level Chicago Center
10:35PM 41.8339 -90.3428 263° West 381 438 34,000  Level Chicago Center
10:36PM 41.8214 -90.4847 263° West 383 441 34,000  Level Chicago Center
10:37PM 41.8069 -90.6550 264° West 385 443 34,000  Level Chicago Center
10:38PM 41.7947 -90.7961 263° West 383 441 34,000  Level Chicago Center
10:39PM 41.7814 -90.9378 263° West 384 442 34,000  Level Chicago Center
10:40PM 41.7697 -91.0789 264° West 383 441 34,000  Level Chicago Center
10:41PM 41.7564 -91.2194 263° West 382 440 34,000 60 Level Chicago Center
10:42PM 41.7425 -91.3633 263° West 387 445 34,200 540 Climbing Chicago Center
10:43PM 41.7275 -91.5089 262° West 394 453 35,200 780 Climbing Chicago Center
10:44PM 41.7147 -91.6503 263° West 387 445 35,900 360 Climbing Chicago Center
10:45PM 41.7008 -91.7908 263° West 383 441 36,000  Climbing Chicago Center
10:46PM 41.6864 -91.9361 262° West 392 451 36,000  Level Chicago Center
10:48PM 41.6686 -92.1172 263° West 410 472 36,000  Level Chicago Center
10:49PM 41.6522 -92.2683 262° West 412 474 36,000  Level Chicago Center
10:50PM 41.6367 -92.4200 262° West 413 475 36,000  Level Chicago Center
10:51PM 41.6211 -92.5681 262° West 407 468 36,000  Level Chicago Center
10:52PM 41.6058 -92.7164 262° West 406 467 36,000  Level Chicago Center
10:52PM 41.6006 -92.7692 262° West 404 465 36,000  Level Minneapolis Center
10:53PM 41.5836 -92.9175 261° West 406 467 36,000  Level Minneapolis Center
10:54PM 41.5678 -93.0667 262° West 410 472 36,000  Level Minneapolis Center
10:55PM 41.5511 -93.2169 262° West 410 472 36,000  Level Minneapolis Center
10:56PM 41.5336 -93.3686 261° West 416 479 36,000  Level Minneapolis Center
10:57PM 41.5169 -93.5194 262° West 416 479 36,000  Level Minneapolis Center
10:58PM 41.5000 -93.6675 261° West 412 474 36,000  Level Minneapolis Center
10:59PM 41.4808 -93.8456 262° West 410 472 36,000  Level Minneapolis Center
11:00PM 41.4586 -94.0256 261° West 412 474 36,000  Level Minneapolis Center
11:01PM 41.4406 -94.1728 261° West 409 471 36,000  Level Minneapolis Center
11:02PM 41.4208 -94.3328 261° West 408 470 36,000  Level Minneapolis Center
11:03PM 41.4036 -94.4814 261° West 407 468 36,000  Level Minneapolis Center
11:04PM 41.3856 -94.6303 261° West 406 467 36,000  Level Minneapolis Center
11:05PM 41.3669 -94.7772 260° West 404 465 36,000  Level Minneapolis Center
11:06PM 41.3486 -94.9253 261° West 405 466 36,000  Level Minneapolis Center
11:07PM 41.3306 -95.0664 260° West 394 453 36,000  Level Minneapolis Center
11:08PM 41.3125 -95.2064 260° West 386 444 36,000  Level Minneapolis Center
11:09PM 41.2939 -95.3433 260° West 377 434 36,000  Level Minneapolis Center
11:10PM 41.2756 -95.4831 260° West 381 438 36,000  Level Minneapolis Center
11:11PM 41.2567 -95.6206 260° West 378 435 36,000  Level Minneapolis Center
11:12PM 41.2397 -95.7550 261° West 377 434 36,000  Level Minneapolis Center
11:13PM 41.2214 -95.8925 260° West 378 435 36,000  Level Minneapolis Center
11:14PM 41.1981 -96.0578 259° West 379 436 36,000  Level Minneapolis Center
11:15PM 41.1794 -96.1961 260° West 379 436 36,000  Level Minneapolis Center
11:16PM 41.1592 -96.3367 259° West 385 443 36,000  Level Minneapolis Center
11:17PM 41.1431 -96.4583 260° West 381 438 36,000  Level Minneapolis Center
11:19PM 41.1231 -96.5972 259° West 382 440 36,000  Level Minneapolis Center
11:20PM 41.1022 -96.7369 259° West 385 443 36,000  Level Minneapolis Center
11:21PM 41.0792 -96.9047 260° West 386 444 36,000  Level Minneapolis Center
11:22PM 41.0578 -97.0419 258° West 382 440 36,000  Level Minneapolis Center
11:23PM 41.0386 -97.1819 260° West 385 443 36,000  Level Minneapolis Center
11:24PM 41.0169 -97.3208 258° West 385 443 36,000  Level Minneapolis Center
11:25PM 40.9978 -97.4469 259° West 382 440 36,000  Level Minneapolis Center
11:26PM 40.9775 -97.5864 259° West 384 442 36,000  Level Minneapolis Center
11:27PM 40.9567 -97.7264 259° West 386 444 36,000  Level Minneapolis Center
11:28PM 40.9350 -97.8661 258° West 387 445 36,000  Level Minneapolis Center
11:29PM 40.9083 -98.0344 258° West 388 447 36,000  Level Minneapolis Center
11:30PM 40.8867 -98.1761 259° West 391 450 36,000  Level Minneapolis Center
11:31PM 40.8639 -98.3178 258° West 392 451 36,000  Level Minneapolis Center
11:32PM 40.8447 -98.4383 258° West 392 451 36,000  Level Minneapolis Center
11:33PM 40.8222 -98.5817 258° West 396 456 36,000  Level Minneapolis Center
11:34PM 40.7947 -98.7558 258° West 403 464 36,000  Level Minneapolis Center
11:35PM 40.7697 -98.9036 257° West 411 473 36,000  Level Minneapolis Center
11:36PM 40.7461 -99.0500 258° West 410 472 36,000  Level Minneapolis Center
11:37PM 40.7267 -99.1672 258° West 409 471 36,000  Level Denver Center
11:38PM 40.7025 -99.3142 258° West 409 471 36,000  Level Denver Center
11:39PM 40.6769 -99.4581 257° West 404 465 36,000  Level Denver Center
11:40PM 40.6531 -99.6036 258° West 405 466 36,000  Level Denver Center
11:41PM 40.6275 -99.7469 257° West 403 464 36,000  Level Denver Center
11:42PM 40.6019 -99.9022 258° West 401 461 36,000  Level Denver Center
11:43PM 40.5778 -100.0375 257° West 396 456 36,000  Level Denver Center
11:44PM 40.5508 -100.1917 257° West 387 445 36,000  Level Denver Center
11:45PM 40.5281 -100.3225 257° West 383 441 36,000  Level Denver Center
11:46PM 40.5042 -100.4517 256° West 380 437 36,000  Level Denver Center
11:47PM 40.4781 -100.6017 257° West 375 432 36,000  Level Denver Center
11:48PM 40.4558 -100.7297 257° West 374 430 36,000  Level Denver Center
11:49PM 40.4319 -100.8575 256° West 375 432 36,000  Level Denver Center
11:50PM 40.4042 -101.0081 256° West 378 435 36,000  Level Denver Center
11:51PM 40.3797 -101.1389 256° West 382 440 36,000  Level Denver Center
11:52PM 40.3511 -101.2919 256° West 386 444 36,000  Level Denver Center
11:53PM 40.3258 -101.4253 256° West 391 450 36,000  Level Denver Center
11:54PM 40.2919 -101.6044 256° West 398 458 36,000  Level Denver Center
11:55PM 40.2661 -101.7411 256° West 404 465 36,000  Level Denver Center
11:56PM 40.2403 -101.8783 256° West 405 466 36,000  Level Denver Center
11:57PM 40.2264 -102.0392 264° West 401 461 36,000  Level Denver Center
11:58PM 40.2328 -102.1806 273° West 406 467 36,000  Level Denver Center
11:59PM 40.2397 -102.3214 274° West 406 467 36,000  Level Denver Center
12:00AM 40.2469 -102.4861 273° West 407 468 36,000  Level Denver Center
12:01AM 40.2517 -102.6275 273° West 406 467 36,000  Level Denver Center
12:02AM 40.2569 -102.7717 273° West 409 471 36,000  Level Denver Center
12:03AM 40.2625 -102.9225 273° West 413 475 36,000  Level Denver Center
12:04AM 40.2272 -103.0967 255° West 425 489 36,000  Level Denver Center
12:05AM 40.1939 -103.2450 254° West 422 486 36,000  Level Denver Center
12:06AM 40.1597 -103.3911 253° West 417 480 36,000  Level Denver Center
12:07AM 40.1264 -103.5369 253° West 416 479 36,000  Level Denver Center
12:08AM 40.0922 -103.6847 253° West 421 484 36,000  Level Denver Center
12:09AM 40.0578 -103.8342 253° West 429 494 36,000  Level Denver Center
12:11AM 40.0239 -103.9806 253° West 419 482 36,000  Level Denver Center
12:12AM 39.9883 -104.1278 253° West 423 487 36,000  Level Denver Center
12:13AM 39.9533 -104.2742 253° West 421 484 36,000  Level Denver Center
12:14AM 39.9186 -104.4169 252° West 413 475 36,000  Level Denver Center
12:15AM 39.8842 -104.5603 253° West 412 474 36,000  Level Denver Center
12:16AM 39.8547 -104.6786 252° West 410 472 36,000  Level Denver Center
12:17AM 39.8139 -104.8464 252° West 419 482 36,000  Level Denver Center
12:18AM 39.7781 -104.9892 252° West 415 478 36,000  Level Denver Center
12:19AM 39.7361 -105.1594 252° West 422 486 36,000  Level Denver Center
12:20AM 39.6997 -105.3042 252° West 419 482 36,000  Level Denver Center
12:21AM 39.6633 -105.4508 252° West 425 489 36,000  Level Denver Center
12:22AM 39.6264 -105.5931 251° West 413 475 36,000  Level Denver Center
12:23AM 39.5897 -105.7361 252° West 411 473 36,000  Level Denver Center
12:24AM 39.5539 -105.8822 252° West 415 478 36,000  Level Denver Center
12:25AM 39.5161 -106.0289 252° West 426 490 36,000  Level Denver Center
12:26AM 39.4761 -106.1861 252° West 433 498 36,100  Climbing Denver Center
12:27AM 39.4444 -106.3086 252° West 432 497 36,000 -60 Descending Denver Center
12:28AM 39.3981 -106.4872 251° West 425 489 36,000  Level Denver Center
12:29AM 39.3619 -106.6239 251° West 421 484 36,000  Level Denver Center
12:30AM 39.3239 -106.7633 251° West 426 490 36,000  Level Denver Center
12:31AM 39.2825 -106.9253 252° West 424 488 36,000  Level Denver Center
12:32AM 39.2464 -107.0611 251° West 420 483 36,000  Level Denver Center
12:33AM 39.2086 -107.1989 251° West 423 487 36,000  Level Denver Center
12:34AM 39.1642 -107.3600 250° West 425 489 36,000  Level Denver Center
12:35AM 39.1267 -107.4978 251° West 426 490 36,000  Level Denver Center
12:36AM 39.0886 -107.6336 250° West 423 487 36,000  Level Denver Center
12:37AM 39.0453 -107.7950 251° West 425 489 36,000  Level Denver Center
12:38AM 39.0072 -107.9331 251° West 428 493 36,000  Level Denver Center
12:39AM 38.9697 -108.0697 251° West 424 488 36,000  Level Denver Center
12:40AM 38.9242 -108.2308 250° West 427 491 36,000  Level Denver Center
12:41AM 38.8856 -108.3672 250° West 424 488 36,000  Level Denver Center
12:42AM 38.8472 -108.5042 250° West 424 488 36,000  Level Denver Center
12:43AM 38.8014 -108.6644 250° West 426 490 36,000  Level Denver Center
12:44AM 38.7628 -108.8017 250° West 428 493 36,000  Level Denver Center
12:45AM 38.7225 -108.9397 250° West 428 493 36,000  Level Denver Center
12:46AM 38.6764 -109.1017 250° West 433 498 36,000  Level Denver Center
12:47AM 38.6350 -109.2394 249° West 432 497 36,000  Level Denver Center
12:48AM 38.5956 -109.3775 250° West 431 496 36,000  Level Denver Center
12:49AM 38.5486 -109.5375 249° West 430 495 36,000  Level Denver Center
12:50AM 38.5075 -109.6742 249° West 431 496 36,000  Level Denver Center
12:51AM 38.4550 -109.8061 243° Southwest 432 497 36,000  Level Denver Center
12:52AM 38.3922 -109.9589 242° Southwest 434 499 36,000  Level Denver Center
12:53AM 38.3369 -110.0889 242° Southwest 435 501 36,000  Level Denver Center
12:54AM 38.2822 -110.2214 242° Southwest 440 506 36,000  Level Denver Center
12:55AM 38.2178 -110.3761 242° Southwest 443 510 36,000  Level Denver Center
12:56AM 38.1617 -110.5089 242° Southwest 445 512 36,000  Level Denver Center
12:57AM 38.1244 -110.5986 242° Southwest 446 513 36,000  Level Salt Lake Center
12:57AM 38.1058 -110.6431 242° Southwest 447 514 36,000  Level Denver Center
12:58AM 38.0486 -110.7778 242° Southwest 451 519 36,000  Level Denver Center
12:59AM 37.9886 -110.9222 242° Southwest 454 522 36,000  Level Denver Center
01:00AM 37.9289 -111.0628 242° Southwest 454 522 36,000  Level Denver Center
01:01AM 37.8794 -111.1756 241° Southwest 456 525 36,000  Level Salt Lake Center
01:01AM 37.8689 -111.2039 245° Southwest 455 524 36,000  Level Denver Center
01:02AM 37.8192 -111.3169 241° Southwest 457 526 36,000  Level Salt Lake Center
01:03AM 37.7592 -111.4600 242° Southwest 460 529 36,000  Level Salt Lake Center
01:04AM 37.6978 -111.6008 241° Southwest 459 528 36,000  Level Salt Lake Center
01:05AM 37.6350 -111.7425 241° Southwest 461 531 36,000  Level Salt Lake Center
01:06AM 37.5872 -111.8536 242° Southwest 456 525 36,000  Level Denver Center
01:06AM 37.5739 -111.8819 239° Southwest 456 525 36,000  Level Salt Lake Center
01:07AM 37.5119 -112.0225 241° Southwest 458 527 36,000  Level Salt Lake Center
01:08AM 37.4503 -112.1619 241° Southwest 455 524 36,000  Level Salt Lake Center
01:09AM 37.3881 -112.3031 241° Southwest 458 527 36,000 -420 Level Salt Lake Center
01:10AM 37.3258 -112.4419 241° Southwest 455 524 35,200 -900 Descending Salt Lake Center
01:11AM 37.2622 -112.5836 241° Southwest 459 528 34,200 -1,020 Descending Salt Lake Center
01:12AM 37.1983 -112.7275 241° Southwest 466 536 33,200 -1,020 Descending Salt Lake Center
01:13AM 37.1331 -112.8711 240° Southwest 469 540 32,200 -1,020 Descending Salt Lake Center
01:14AM 37.0675 -113.0150 240° Southwest 472 543 31,200 -1,140 Descending Salt Lake Center
01:15AM 36.9911 -113.1850 241° Southwest 468 539 30,000 -1,080 Descending Salt Lake Center
01:16AM 36.9286 -113.3206 240° Southwest 455 524 29,100 -960 Descending Salt Lake Center
01:17AM 36.8667 -113.4547 240° Southwest 448 516 28,100 -960 Descending Salt Lake Center
01:18AM 36.8075 -113.5839 240° Southwest 434 499 27,200 -1,140 Descending Salt Lake Center
01:19AM 36.7483 -113.7097 240° Southwest 424 488 25,900 -1,740 Descending Salt Lake Center
01:20AM 36.6931 -113.8328 241° Southwest 413 475 23,800 -1,980 Descending Salt Lake Center
01:21AM 36.6278 -113.9689 239° Southwest 387 445 21,500 -1,980 Descending Los Angeles Center
01:23AM 36.5758 -114.0797 240° Southwest 373 429 19,400 -2,160 Descending Los Angeles Center
01:23AM 36.5342 -114.1775 242° Southwest 367 422 17,600 -2,340 Descending Los Angeles Center
01:24AM 36.5086 -114.2372 242° Southwest 343 395 16,200 -1,920 Descending Los Angeles Center
01:25AM 36.4781 -114.2958 237° Southwest 323 372 15,200 -1,620 Descending Los Angeles Center
01:25AM 36.4606 -114.3422 245° Southwest 302 348 14,400 -1,920 Descending Los Angeles Center
01:26AM 36.4375 -114.3864 237° Southwest 304 350 13,300 -1,800 Descending Los Angeles Center
01:26AM 36.4242 -114.4217 245° Southwest 303 349 12,800 -1,020 Descending Los Angeles Center
01:27AM 36.3817 -114.5031 237° Southwest 300 345 12,000 -480 Descending Los Angeles Center
01:28AM 36.3483 -114.5592 234° Southwest 292 336 12,000 -600 Level Los Angeles Center
01:29AM 36.3092 -114.6300 236° Southwest 255 293 11,000 -1,140 Descending Los Angeles Center
01:30AM 36.2733 -114.6992 237° Southwest 241 277 9,800 -1,200 Descending Los Angeles Center
01:31AM 36.2353 -114.7669 235° Southwest 239 275 8,600 -900 Descending Los Angeles Center
01:32AM 36.2019 -114.8292 236° Southwest 221 254 8,000 -1,080 Descending Los Angeles Center
01:33AM 36.1725 -114.8831 236° Southwest 197 227 6,500 -1,080 Descending Los Angeles Center
01:34AM 36.1422 -114.9378 236° Southwest 192 221 5,900 -660 Descending Los Angeles Center
01:35AM 36.1344 -114.9981 261° West 188 216 5,200 -960 Descending Los Angeles Center
01:36AM 36.1397 -115.0606 276° West 187 215 4,000 -1,140 Descending Los Angeles Center
01:37AM 36.1303 -115.1292 260° West 156 180 2,900 -960 Descending Los Angeles Center
01:38AM 36.0997 -115.1578 217° Southwest 139 160 2,100 -840 Descending Los Angeles Center
01:40AM 36.0801 -115.1523 219° Southwest  Level Estimated